sensor_id;sensor_type;location;lat;lon;timestamp;pressure;altitude;pressure_sealevel;temperature;humidity
71306;BME280;59097;46.858;18.632;2023-04-02T00:00:03;99515.19;;;8.60;91.83
71306;BME280;59097;46.858;18.632;2023-04-02T00:02:55;99502.62;;;8.68;91.35
71306;BME280;59097;46.858;18.632;2023-04-02T00:08:01;99503.28;;;8.83;90.42
71306;BME280;59097;46.858;18.632;2023-04-02T00:15:41;99510.81;;;8.87;89.88
71306;BME280;59097;46.858;18.632;2023-04-02T00:18:20;99515.50;;;8.91;89.76
71306;BME280;59097;46.858;18.632;2023-04-02T00:21:03;99508.97;;;8.87;89.77
71306;BME280;59097;46.858;18.632;2023-04-02T00:23:39;99473.75;;;8.67;90.16
71306;BME280;59097;46.858;18.632;2023-04-02T00:26:36;99508.19;;;8.87;90.21
71306;BME280;59097;46.858;18.632;2023-04-02T00:29:06;99503.91;;;8.85;90.95
71306;BME280;59097;46.858;18.632;2023-04-02T00:31:37;99505.50;;;8.80;91.40
71306;BME280;59097;46.858;18.632;2023-04-02T00:34:14;99500.81;;;8.75;92.20
71306;BME280;59097;46.858;18.632;2023-04-02T00:36:45;99499.34;;;8.66;93.51
71306;BME280;59097;46.858;18.632;2023-04-02T00:39:28;99501.81;;;8.68;92.93
71306;BME280;59097;46.858;18.632;2023-04-02T00:41:58;99499.34;;;8.60;93.26
71306;BME280;59097;46.858;18.632;2023-04-02T00:44:38;99501.38;;;8.58;93.62
71306;BME280;59097;46.858;18.632;2023-04-02T00:49:55;99505.41;;;8.54;92.85
71306;BME280;59097;46.858;18.632;2023-04-02T00:52:27;99472.81;;;8.34;93.09
71306;BME280;59097;46.858;18.632;2023-04-02T00:57:31;99509.03;;;8.40;93.88
71306;BME280;59097;46.858;18.632;2023-04-02T01:05:39;99507.03;;;8.48;94.43
71306;BME280;59097;46.858;18.632;2023-04-02T01:11:29;99507.88;;;8.55;93.62
71306;BME280;59097;46.858;18.632;2023-04-02T01:16:46;99507.72;;;8.63;93.18
71306;BME280;59097;46.858;18.632;2023-04-02T01:21:54;99511.19;;;8.70;93.86
71306;BME280;59097;46.858;18.632;2023-04-02T01:24:29;99463.91;;;8.41;94.16
71306;BME280;59097;46.858;18.632;2023-04-02T01:27:00;99500.00;;;8.68;94.50
71306;BME280;59097;46.858;18.632;2023-04-02T01:29:33;99508.72;;;8.69;95.06
71306;BME280;59097;46.858;18.632;2023-04-02T01:32:05;99510.34;;;8.70;94.30
71306;BME280;59097;46.858;18.632;2023-04-02T01:34:34;99499.78;;;8.76;92.80
71306;BME280;59097;46.858;18.632;2023-04-02T01:37:12;99461.13;;;8.56;93.17
71306;BME280;59097;46.858;18.632;2023-04-02T01:42:33;99512.81;;;8.84;93.31
71306;BME280;59097;46.858;18.632;2023-04-02T01:45:08;99509.19;;;8.85;93.22
71306;BME280;59097;46.858;18.632;2023-04-02T01:47:38;99517.75;;;8.94;92.42
71306;BME280;59097;46.858;18.632;2023-04-02T01:52:50;99513.69;;;8.92;92.39
71306;BME280;59097;46.858;18.632;2023-04-02T01:55:50;99493.75;;;8.89;91.81
71306;BME280;59097;46.858;18.632;2023-04-02T01:58:25;99515.31;;;8.99;91.65
71306;BME280;59097;46.858;18.632;2023-04-02T02:03:29;99510.00;;;8.93;90.91
71306;BME280;59097;46.858;18.632;2023-04-02T02:05:58;99509.19;;;8.85;90.95
71306;BME280;59097;46.858;18.632;2023-04-02T02:11:12;99504.59;;;8.47;92.20
71306;BME280;59097;46.858;18.632;2023-04-02T02:13:58;99514.31;;;8.46;93.26
71306;BME280;59097;46.858;18.632;2023-04-02T02:16:28;99513.66;;;8.31;92.76
71306;BME280;59097;46.858;18.632;2023-04-02T02:19:01;99505.47;;;8.19;94.35
71306;BME280;59097;46.858;18.632;2023-04-02T02:21:41;99507.88;;;8.14;94.84
71306;BME280;59097;46.858;18.632;2023-04-02T02:24:25;99491.66;;;7.90;95.46
71306;BME280;59097;46.858;18.632;2023-04-02T02:32:24;99512.03;;;7.68;97.76
71306;BME280;59097;46.858;18.632;2023-04-02T02:35:03;99470.34;;;7.57;97.60
71306;BME280;59097;46.858;18.632;2023-04-02T02:37:39;99509.81;;;7.72;97.26
71306;BME280;59097;46.858;18.632;2023-04-02T02:40:15;99511.22;;;7.68;97.77
71306;BME280;59097;46.858;18.632;2023-04-02T02:42:50;99477.78;;;7.47;98.29
71306;BME280;59097;46.858;18.632;2023-04-02T02:45:25;99508.09;;;7.57;98.81
71306;BME280;59097;46.858;18.632;2023-04-02T02:47:55;99509.31;;;7.55;99.55
71306;BME280;59097;46.858;18.632;2023-04-02T02:50:30;99511.25;;;7.46;99.28
71306;BME280;59097;46.858;18.632;2023-04-02T02:53:04;99512.66;;;7.21;100.00
71306;BME280;59097;46.858;18.632;2023-04-02T02:55:34;99507.97;;;7.17;100.00
71306;BME280;59097;46.858;18.632;2023-04-02T02:58:09;99500.09;;;7.23;100.00
71306;BME280;59097;46.858;18.632;2023-04-02T03:00:39;99509.41;;;7.40;99.89
71306;BME280;59097;46.858;18.632;2023-04-02T03:03:11;99511.56;;;7.58;99.04
71306;BME280;59097;46.858;18.632;2023-04-02T03:05:42;99473.09;;;7.42;98.02
71306;BME280;59097;46.858;18.632;2023-04-02T03:08:33;99512.47;;;7.72;98.50
71306;BME280;59097;46.858;18.632;2023-04-02T03:13:34;99534.31;;;7.87;98.52
71306;BME280;59097;46.858;18.632;2023-04-02T03:16:22;99528.34;;;7.78;99.25
71306;BME280;59097;46.858;18.632;2023-04-02T03:19:03;99531.03;;;7.85;98.82
71306;BME280;59097;46.858;18.632;2023-04-02T03:24:24;99504.00;;;7.76;99.02
71306;BME280;59097;46.858;18.632;2023-04-02T03:26:59;99531.91;;;7.92;98.46
71306;BME280;59097;46.858;18.632;2023-04-02T03:29:33;99534.97;;;7.95;98.88
71306;BME280;59097;46.858;18.632;2023-04-02T03:32:18;99531.91;;;7.92;98.77
71306;BME280;59097;46.858;18.632;2023-04-02T03:35:57;99532.28;;;7.89;98.71
71306;BME280;59097;46.858;18.632;2023-04-02T03:38:15;99520.22;;;7.80;98.56
71306;BME280;59097;46.858;18.632;2023-04-02T03:40:57;99523.09;;;7.85;98.30
71306;BME280;59097;46.858;18.632;2023-04-02T03:43:42;99529.03;;;7.87;98.76
71306;BME280;59097;46.858;18.632;2023-04-02T03:46:47;99531.84;;;7.85;98.50
71306;BME280;59097;46.858;18.632;2023-04-02T03:49:28;99524.97;;;7.84;98.12
71306;BME280;59097;46.858;18.632;2023-04-02T03:52:03;99525.50;;;7.80;97.62
71306;BME280;59097;46.858;18.632;2023-04-02T03:54:32;99526.94;;;7.82;98.12
71306;BME280;59097;46.858;18.632;2023-04-02T03:57:00;99529.41;;;7.84;98.00
71306;BME280;59097;46.858;18.632;2023-04-02T03:59:51;99531.69;;;7.87;98.08
71306;BME280;59097;46.858;18.632;2023-04-02T04:04:54;99532.53;;;7.94;97.23
71306;BME280;59097;46.858;18.632;2023-04-02T04:07:42;99527.63;;;7.91;97.90
71306;BME280;59097;46.858;18.632;2023-04-02T04:10:17;99529.03;;;7.87;98.35
71306;BME280;59097;46.858;18.632;2023-04-02T04:12:47;99508.91;;;7.86;97.65
71306;BME280;59097;46.858;18.632;2023-04-02T04:15:47;99531.56;;;8.01;97.53
71306;BME280;59097;46.858;18.632;2023-04-02T04:18:26;99537.31;;;8.11;95.86
71306;BME280;59097;46.858;18.632;2023-04-02T04:21:11;99526.59;;;8.26;94.10
71306;BME280;59097;46.858;18.632;2023-04-02T04:23:48;99536.84;;;8.36;93.42
71306;BME280;59097;46.858;18.632;2023-04-02T04:27:05;99536.28;;;8.40;93.38
71306;BME280;59097;46.858;18.632;2023-04-02T04:32:29;99538.56;;;8.56;91.76
71306;BME280;59097;46.858;18.632;2023-04-02T04:37:58;99542.25;;;8.62;93.14
71306;BME280;59097;46.858;18.632;2023-04-02T04:40:33;99550.44;;;8.73;91.30
71306;BME280;59097;46.858;18.632;2023-04-02T04:43:06;99554.72;;;8.81;90.83
71306;BME280;59097;46.858;18.632;2023-04-02T04:45:49;99559.19;;;8.80;91.81
71306;BME280;59097;46.858;18.632;2023-04-02T04:51:44;99557.78;;;8.84;91.63
71306;BME280;59097;46.858;18.632;2023-04-02T04:54:15;99560.25;;;8.86;91.63
71306;BME280;59097;46.858;18.632;2023-04-02T04:56:55;99561.69;;;8.95;91.50
71306;BME280;59097;46.858;18.632;2023-04-02T04:59:32;99549.84;;;8.84;91.17
71306;BME280;59097;46.858;18.632;2023-04-02T05:02:44;99569.22;;;8.92;91.63
71306;BME280;59097;46.858;18.632;2023-04-02T05:05:15;99573.13;;;9.09;90.94
71306;BME280;59097;46.858;18.632;2023-04-02T05:07:50;99567.59;;;9.04;90.95
71306;BME280;59097;46.858;18.632;2023-04-02T05:13:09;99574.34;;;9.06;91.73
71306;BME280;59097;46.858;18.632;2023-04-02T05:15:49;99583.66;;;9.02;91.90
71306;BME280;59097;46.858;18.632;2023-04-02T05:18:31;99576.72;;;8.88;93.36
71306;BME280;59097;46.858;18.632;2023-04-02T05:21:20;99594.22;;;8.89;95.11
71306;BME280;59097;46.858;18.632;2023-04-02T05:23:57;99593.88;;;9.12;93.26
71306;BME280;59097;46.858;18.632;2023-04-02T05:26:39;99605.84;;;9.01;94.04
71306;BME280;59097;46.858;18.632;2023-04-02T05:29:21;99590.16;;;8.93;94.44
71306;BME280;59097;46.858;18.632;2023-04-02T05:32:12;99543.22;;;8.48;94.11
71306;BME280;59097;46.858;18.632;2023-04-02T05:34:48;99610.88;;;8.90;95.57
71306;BME280;59097;46.858;18.632;2023-04-02T05:37:22;99604.84;;;9.15;93.62
71306;BME280;59097;46.858;18.632;2023-04-02T05:39:54;99614.66;;;9.28;92.65
71306;BME280;59097;46.858;18.632;2023-04-02T05:42:29;99592.69;;;9.34;91.73
71306;BME280;59097;46.858;18.632;2023-04-02T05:45:29;99606.56;;;9.69;90.67
71306;BME280;59097;46.858;18.632;2023-04-02T05:48:03;99605.34;;;10.10;88.14
71306;BME280;59097;46.858;18.632;2023-04-02T05:50:36;99602.03;;;10.54;87.09
71306;BME280;59097;46.858;18.632;2023-04-02T05:55:58;99611.09;;;11.60;80.62
71306;BME280;59097;46.858;18.632;2023-04-02T06:03:54;99601.09;;;11.31;83.33
71306;BME280;59097;46.858;18.632;2023-04-02T06:09:29;99612.16;;;11.53;82.54
71306;BME280;59097;46.858;18.632;2023-04-02T06:12:09;99623.12;;;11.69;81.99
71306;BME280;59097;46.858;18.632;2023-04-02T06:14:39;99601.72;;;11.89;80.37
71306;BME280;59097;46.858;18.632;2023-04-02T06:17:13;99619.16;;;12.28;79.41
71306;BME280;59097;46.858;18.632;2023-04-02T06:19:43;99623.34;;;12.17;77.45
71306;BME280;59097;46.858;18.632;2023-04-02T06:22:31;99621.56;;;12.54;77.59
71306;BME280;59097;46.858;18.632;2023-04-02T06:25:32;99627.63;;;12.79;77.39
71306;BME280;59097;46.858;18.632;2023-04-02T06:28:04;99590.00;;;12.57;74.15
71306;BME280;59097;46.858;18.632;2023-04-02T06:30:37;99578.03;;;12.48;74.67
71306;BME280;59097;46.858;18.632;2023-04-02T06:33:10;99627.22;;;12.57;74.83
71306;BME280;59097;46.858;18.632;2023-04-02T06:35:42;99646.25;;;12.79;74.30
71306;BME280;59097;46.858;18.632;2023-04-02T06:38:18;99643.44;;;12.74;74.11
71306;BME280;59097;46.858;18.632;2023-04-02T06:41:04;99634.25;;;12.88;74.71
71306;BME280;59097;46.858;18.632;2023-04-02T06:43:44;99634.94;;;12.84;74.26
71306;BME280;59097;46.858;18.632;2023-04-02T06:46:30;99640.69;;;12.81;75.33
71306;BME280;59097;46.858;18.632;2023-04-02T06:49:13;99640.69;;;12.81;75.00
71306;BME280;59097;46.858;18.632;2023-04-02T06:51:43;99656.06;;;12.79;76.28
71306;BME280;59097;46.858;18.632;2023-04-02T06:54:16;99648.38;;;12.89;74.85
71306;BME280;59097;46.858;18.632;2023-04-02T06:56:48;99658.16;;;12.77;76.02
71306;BME280;59097;46.858;18.632;2023-04-02T06:59:19;99649.59;;;12.93;75.91
71306;BME280;59097;46.858;18.632;2023-04-02T07:01:49;99663.97;;;13.03;74.16
71306;BME280;59097;46.858;18.632;2023-04-02T07:04:19;99661.09;;;13.05;75.27
71306;BME280;59097;46.858;18.632;2023-04-02T07:06:49;99656.16;;;13.08;73.65
71306;BME280;59097;46.858;18.632;2023-04-02T07:09:18;99662.56;;;13.37;74.24
71306;BME280;59097;46.858;18.632;2023-04-02T07:11:47;99665.66;;;13.34;73.01
71306;BME280;59097;46.858;18.632;2023-04-02T07:14:16;99669.78;;;13.48;73.27
71306;BME280;59097;46.858;18.632;2023-04-02T07:16:45;99676.41;;;13.28;71.53
71306;BME280;59097;46.858;18.632;2023-04-02T07:19:20;99671.81;;;13.16;72.93
71306;BME280;59097;46.858;18.632;2023-04-02T07:21:50;99676.69;;;13.01;72.58
71306;BME280;59097;46.858;18.632;2023-04-02T07:24:19;99677.06;;;13.41;73.09
71306;BME280;59097;46.858;18.632;2023-04-02T07:26:47;99671.47;;;13.72;73.77
71306;BME280;59097;46.858;18.632;2023-04-02T07:29:16;99668.06;;;13.95;71.41
71306;BME280;59097;46.858;18.632;2023-04-02T07:31:44;99675.09;;;14.31;71.31
71306;BME280;59097;46.858;18.632;2023-04-02T07:34:12;99669.41;;;14.39;70.88
71306;BME280;59097;46.858;18.632;2023-04-02T07:36:40;99665.37;;;13.83;71.30
71306;BME280;59097;46.858;18.632;2023-04-02T07:39:08;99673.00;;;13.80;71.13
71306;BME280;59097;46.858;18.632;2023-04-02T07:42:09;99681.94;;;13.74;71.41
71306;BME280;59097;46.858;18.632;2023-04-02T07:44:48;99683.31;;;13.47;72.50
71306;BME280;59097;46.858;18.632;2023-04-02T07:47:23;99677.47;;;14.09;69.81
71306;BME280;59097;46.858;18.632;2023-04-02T07:50:12;99686.47;;;14.38;67.51
71306;BME280;59097;46.858;18.632;2023-04-02T07:52:41;99672.87;;;14.74;65.66
71306;BME280;59097;46.858;18.632;2023-04-02T07:55:10;99690.81;;;15.13;65.05
71306;BME280;59097;46.858;18.632;2023-04-02T07:57:46;99695.50;;;15.46;64.22
71306;BME280;59097;46.858;18.632;2023-04-02T08:00:16;99690.06;;;15.69;61.63
71306;BME280;59097;46.858;18.632;2023-04-02T08:02:45;99698.06;;;15.53;62.07
71306;BME280;59097;46.858;18.632;2023-04-02T08:05:14;99702.63;;;15.69;61.57
71306;BME280;59097;46.858;18.632;2023-04-02T08:07:43;99705.81;;;15.83;61.60
71306;BME280;59097;46.858;18.632;2023-04-02T08:10:11;99705.25;;;15.41;65.50
71306;BME280;59097;46.858;18.632;2023-04-02T08:12:39;99704.37;;;15.92;62.30
71306;BME280;59097;46.858;18.632;2023-04-02T08:15:12;99704.53;;;15.85;62.21
71306;BME280;59097;46.858;18.632;2023-04-02T08:17:41;99715.22;;;15.57;66.72
71306;BME280;59097;46.858;18.632;2023-04-02T08:20:18;99713.75;;;15.38;66.15
71306;BME280;59097;46.858;18.632;2023-04-02T08:22:48;99705.25;;;15.97;63.75
71306;BME280;59097;46.858;18.632;2023-04-02T08:25:16;99710.75;;;16.52;62.62
71306;BME280;59097;46.858;18.632;2023-04-02T08:27:47;99718.09;;;16.12;62.05
71306;BME280;59097;46.858;18.632;2023-04-02T08:30:16;99703.59;;;16.24;61.89
71306;BME280;59097;46.858;18.632;2023-04-02T08:32:44;99691.13;;;17.02;60.04
71306;BME280;59097;46.858;18.632;2023-04-02T08:35:15;99716.16;;;16.41;62.63
71306;BME280;59097;46.858;18.632;2023-04-02T08:37:43;99713.88;;;17.64;57.21
71306;BME280;59097;46.858;18.632;2023-04-02T08:40:22;99717.41;;;19.54;52.83
71306;BME280;59097;46.858;18.632;2023-04-02T08:48:13;99721.00;;;21.10;46.49
71306;BME280;59097;46.858;18.632;2023-04-02T08:50:43;99710.63;;;22.59;44.44
71306;BME280;59097;46.858;18.632;2023-04-02T08:53:27;99719.41;;;20.89;46.46
71306;BME280;59097;46.858;18.632;2023-04-02T08:56:02;99720.41;;;18.63;51.97
71306;BME280;59097;46.858;18.632;2023-04-02T08:58:41;99725.22;;;18.98;53.02
71306;BME280;59097;46.858;18.632;2023-04-02T09:01:34;99733.53;;;19.02;50.06
71306;BME280;59097;46.858;18.632;2023-04-02T09:04:11;99731.75;;;19.17;50.29
71306;BME280;59097;46.858;18.632;2023-04-02T09:06:41;99727.63;;;18.58;49.57
71306;BME280;59097;46.858;18.632;2023-04-02T09:09:11;99733.53;;;18.97;50.21
71306;BME280;59097;46.858;18.632;2023-04-02T09:14:24;99737.88;;;17.76;54.81
71306;BME280;59097;46.858;18.632;2023-04-02T09:16:59;99746.81;;;17.59;57.03
71306;BME280;59097;46.858;18.632;2023-04-02T09:19:37;99738.88;;;18.92;52.05
71306;BME280;59097;46.858;18.632;2023-04-02T09:25:14;99751.78;;;16.91;56.38
71306;BME280;59097;46.858;18.632;2023-04-02T09:27:41;99743.88;;;16.01;62.45
71306;BME280;59097;46.858;18.632;2023-04-02T09:32:59;99751.22;;;16.56;63.02
71306;BME280;59097;46.858;18.632;2023-04-02T09:35:36;99756.25;;;16.69;62.34
71306;BME280;59097;46.858;18.632;2023-04-02T09:38:24;99762.50;;;16.91;62.29
71306;BME280;59097;46.858;18.632;2023-04-02T09:44:26;99754.50;;;16.58;61.55
71306;BME280;59097;46.858;18.632;2023-04-02T09:47:05;99757.87;;;15.92;64.82
71306;BME280;59097;46.858;18.632;2023-04-02T09:49:36;99761.75;;;16.79;61.65
71306;BME280;59097;46.858;18.632;2023-04-02T09:52:15;99760.88;;;16.57;63.33
71306;BME280;59097;46.858;18.632;2023-04-02T09:54:46;99764.34;;;16.74;60.39
71306;BME280;59097;46.858;18.632;2023-04-02T09:57:21;99762.81;;;16.61;63.18
71306;BME280;59097;46.858;18.632;2023-04-02T10:00:18;99762.03;;;16.61;63.01
71306;BME280;59097;46.858;18.632;2023-04-02T10:05:30;99761.53;;;16.64;63.51
71306;BME280;59097;46.858;18.632;2023-04-02T10:08:19;99765.47;;;17.33;60.15
71306;BME280;59097;46.858;18.632;2023-04-02T10:10:54;99759.75;;;17.24;61.79
71306;BME280;59097;46.858;18.632;2023-04-02T10:16:44;99771.53;;;17.45;59.99
71306;BME280;59097;46.858;18.632;2023-04-02T10:21:53;99770.47;;;17.24;62.06
71306;BME280;59097;46.858;18.632;2023-04-02T10:24:22;99775.91;;;17.73;61.74
71306;BME280;59097;46.858;18.632;2023-04-02T10:26:56;99776.88;;;17.23;61.44
71306;BME280;59097;46.858;18.632;2023-04-02T10:29:48;99775.88;;;16.74;59.02
71306;BME280;59097;46.858;18.632;2023-04-02T10:32:27;99772.16;;;16.75;58.90
71306;BME280;59097;46.858;18.632;2023-04-02T10:43:28;99773.75;;;15.98;61.53
71306;BME280;59097;46.858;18.632;2023-04-02T10:48:39;99762.25;;;15.98;63.03
71306;BME280;59097;46.858;18.632;2023-04-02T10:51:26;99742.87;;;16.07;62.73
71306;BME280;59097;46.858;18.632;2023-04-02T10:56:41;99764.34;;;16.90;61.92
71306;BME280;59097;46.858;18.632;2023-04-02T10:59:23;99762.28;;;16.76;59.37
71306;BME280;59097;46.858;18.632;2023-04-02T11:01:56;99738.72;;;16.78;61.64
71306;BME280;59097;46.858;18.632;2023-04-02T11:04:38;99766.25;;;16.57;60.62
71306;BME280;59097;46.858;18.632;2023-04-02T11:07:18;99773.03;;;16.97;60.17
71306;BME280;59097;46.858;18.632;2023-04-02T11:09:49;99764.59;;;16.56;60.60
71306;BME280;59097;46.858;18.632;2023-04-02T11:14:50;99765.72;;;16.26;62.75
71306;BME280;59097;46.858;18.632;2023-04-02T11:17:20;99761.09;;;15.65;64.83
71306;BME280;59097;46.858;18.632;2023-04-02T11:19:48;99770.28;;;15.98;64.80
71306;BME280;59097;46.858;18.632;2023-04-02T11:48:43;99785.19;;;15.42;69.27
71306;BME280;59097;46.858;18.632;2023-04-02T11:53:53;99777.25;;;15.99;68.04
71306;BME280;59097;46.858;18.632;2023-04-02T11:56:42;99776.09;;;15.95;68.25
71306;BME280;59097;46.858;18.632;2023-04-02T11:59:20;99742.91;;;15.51;66.62
71306;BME280;59097;46.858;18.632;2023-04-02T12:07:36;99755.97;;;15.92;64.54
71306;BME280;59097;46.858;18.632;2023-04-02T12:10:31;99761.12;;;16.10;64.54
71306;BME280;59097;46.858;18.632;2023-04-02T12:13:01;99703.78;;;15.73;65.67
71306;BME280;59097;46.858;18.632;2023-04-02T12:18:19;99724.72;;;15.25;67.27
71306;BME280;59097;46.858;18.632;2023-04-02T12:20:51;99760.38;;;15.30;66.83
71306;BME280;59097;46.858;18.632;2023-04-02T12:23:31;99754.31;;;15.35;67.03
71306;BME280;59097;46.858;18.632;2023-04-02T12:28:50;99748.41;;;15.33;66.10
71306;BME280;59097;46.858;18.632;2023-04-02T12:31:23;99737.97;;;15.20;65.46
71306;BME280;59097;46.858;18.632;2023-04-02T12:33:52;99724.88;;;14.83;65.04
71306;BME280;59097;46.858;18.632;2023-04-02T12:36:21;99740.06;;;15.06;66.72
71306;BME280;59097;46.858;18.632;2023-04-02T12:38:57;99716.50;;;14.57;67.80
71306;BME280;59097;46.858;18.632;2023-04-02T12:41:31;99737.78;;;14.86;67.95
71306;BME280;59097;46.858;18.632;2023-04-02T12:46:30;99733.72;;;15.47;66.96
71306;BME280;59097;46.858;18.632;2023-04-02T12:51:37;99699.91;;;15.52;61.39
71306;BME280;59097;46.858;18.632;2023-04-02T12:54:05;99712.34;;;15.75;62.68
71306;BME280;59097;46.858;18.632;2023-04-02T12:56:34;99722.66;;;15.83;63.22
71306;BME280;59097;46.858;18.632;2023-04-02T12:59:02;99717.22;;;16.06;64.73
71306;BME280;59097;46.858;18.632;2023-04-02T13:01:30;99712.34;;;16.03;63.60
71306;BME280;59097;46.858;18.632;2023-04-02T13:04:04;99723.53;;;16.33;64.54
71306;BME280;59097;46.858;18.632;2023-04-02T13:06:35;99714.69;;;16.16;62.48
71306;BME280;59097;46.858;18.632;2023-04-02T13:09:06;99710.09;;;16.45;61.41
71306;BME280;59097;46.858;18.632;2023-04-02T13:11:56;99723.69;;;16.77;62.83
71306;BME280;59097;46.858;18.632;2023-04-02T13:14:25;99726.37;;;16.77;60.83
71306;BME280;59097;46.858;18.632;2023-04-02T13:16:54;99719.72;;;16.96;60.38
71306;BME280;59097;46.858;18.632;2023-04-02T13:19:30;99717.66;;;17.03;57.88
71306;BME280;59097;46.858;18.632;2023-04-02T13:22:01;99721.09;;;16.82;59.26
71306;BME280;59097;46.858;18.632;2023-04-02T13:24:31;99712.44;;;16.42;58.19
71306;BME280;59097;46.858;18.632;2023-04-02T13:27:01;99715.38;;;16.57;60.55
71306;BME280;59097;46.858;18.632;2023-04-02T13:29:34;99713.72;;;16.72;59.54
71306;BME280;59097;46.858;18.632;2023-04-02T13:32:05;99706.59;;;16.11;62.80
71306;BME280;59097;46.858;18.632;2023-04-02T13:34:34;99703.34;;;16.09;62.43
71306;BME280;59097;46.858;18.632;2023-04-02T13:37:02;99712.91;;;16.05;63.70
71306;BME280;59097;46.858;18.632;2023-04-02T13:39:30;99719.94;;;15.66;64.53
71306;BME280;59097;46.858;18.632;2023-04-02T13:42:01;99724.91;;;15.46;65.61
71306;BME280;59097;46.858;18.632;2023-04-02T13:44:32;99727.03;;;15.33;67.61
71306;BME280;59097;46.858;18.632;2023-04-02T13:47:02;99709.31;;;14.80;68.99
71306;BME280;59097;46.858;18.632;2023-04-02T13:49:31;99720.00;;;14.80;68.39
71306;BME280;59097;46.858;18.632;2023-04-02T13:55:12;99725.69;;;14.84;70.04
71306;BME280;59097;46.858;18.632;2023-04-02T14:01:40;99734.63;;;15.01;69.76
71306;BME280;59097;46.858;18.632;2023-04-02T14:04:16;99732.97;;;15.11;69.87
71306;BME280;59097;46.858;18.632;2023-04-02T14:07:13;99733.09;;;15.17;70.54
71306;BME280;59097;46.858;18.632;2023-04-02T14:16:50;99742.75;;;14.48;70.10
71306;BME280;59097;46.858;18.632;2023-04-02T14:19:20;99709.31;;;14.34;72.09
71306;BME280;59097;46.858;18.632;2023-04-02T14:21:59;99707.56;;;14.28;71.38
71306;BME280;59097;46.858;18.632;2023-04-02T14:27:32;99722.56;;;14.40;70.73
71306;BME280;59097;46.858;18.632;2023-04-02T14:35:41;99734.63;;;14.66;70.84
71306;BME280;59097;46.858;18.632;2023-04-02T14:38:37;99733.00;;;14.54;68.97
71306;BME280;59097;46.858;18.632;2023-04-02T14:41:14;99734.03;;;14.53;69.86
71306;BME280;59097;46.858;18.632;2023-04-02T14:43:50;99729.97;;;14.62;69.25
71306;BME280;59097;46.858;18.632;2023-04-02T14:46:24;99728.16;;;14.74;69.78
71306;BME280;59097;46.858;18.632;2023-04-02T14:48:57;99732.88;;;14.72;70.58
71306;BME280;59097;46.858;18.632;2023-04-02T14:57:09;99735.69;;;14.54;69.74
71306;BME280;59097;46.858;18.632;2023-04-02T15:08:41;99744.22;;;14.32;67.34
71306;BME280;59097;46.858;18.632;2023-04-02T15:11:49;99741.59;;;14.14;70.23
71306;BME280;59097;46.858;18.632;2023-04-02T15:14:29;99753.50;;;14.00;71.32
71306;BME280;59097;46.858;18.632;2023-04-02T15:16:58;99754.75;;;13.98;70.58
71306;BME280;59097;46.858;18.632;2023-04-02T15:19:26;99766.53;;;13.78;70.06
71306;BME280;59097;46.858;18.632;2023-04-02T15:24:50;99777.81;;;13.08;75.52
71306;BME280;59097;46.858;18.632;2023-04-02T15:30:06;99777.38;;;12.86;79.60
71306;BME280;59097;46.858;18.632;2023-04-02T15:32:40;99769.94;;;12.70;81.21
71306;BME280;59097;46.858;18.632;2023-04-02T15:35:16;99781.47;;;12.64;82.04
71306;BME280;59097;46.858;18.632;2023-04-02T15:41:03;99789.66;;;12.38;80.60
71306;BME280;59097;46.858;18.632;2023-04-02T16:03:11;99814.25;;;11.95;82.87
71306;BME280;59097;46.858;18.632;2023-04-02T16:09:06;99823.66;;;11.91;85.13
71306;BME280;59097;46.858;18.632;2023-04-02T16:11:37;99820.22;;;11.84;86.26
71306;BME280;59097;46.858;18.632;2023-04-02T16:14:28;99794.97;;;11.69;87.05
71306;BME280;59097;46.858;18.632;2023-04-02T16:17:02;99827.81;;;11.81;87.21
71306;BME280;59097;46.858;18.632;2023-04-02T16:19:52;99830.47;;;11.81;87.46
71306;BME280;59097;46.858;18.632;2023-04-02T16:22:25;99825.37;;;11.79;88.40
71306;BME280;59097;46.858;18.632;2023-04-02T16:24:59;99828.19;;;11.84;89.71
71306;BME280;59097;46.858;18.632;2023-04-02T16:27:34;99839.66;;;11.78;89.15
71306;BME280;59097;46.858;18.632;2023-04-02T16:33:29;99842.97;;;11.61;90.60
71306;BME280;59097;46.858;18.632;2023-04-02T16:41:46;99860.34;;;11.50;91.52
71306;BME280;59097;46.858;18.632;2023-04-02T16:50:23;99864.22;;;11.61;89.18
71306;BME280;59097;46.858;18.632;2023-04-02T16:52:58;99860.31;;;11.63;86.90
71306;BME280;59097;46.858;18.632;2023-04-02T16:59:18;99872.00;;;11.69;86.45
71306;BME280;59097;46.858;18.632;2023-04-02T17:02:14;99870.31;;;11.68;85.90
71306;BME280;59097;46.858;18.632;2023-04-02T17:05:18;99873.41;;;11.65;85.54
71306;BME280;59097;46.858;18.632;2023-04-02T17:14:00;99883.28;;;11.45;86.36
71306;BME280;59097;46.858;18.632;2023-04-02T17:16:25;99893.09;;;11.31;86.85
71306;BME280;59097;46.858;18.632;2023-04-02T17:18:56;99878.00;;;11.05;86.60
71306;BME280;59097;46.858;18.632;2023-04-02T17:21:27;99894.09;;;11.04;87.25
71306;BME280;59097;46.858;18.632;2023-04-02T17:24:05;99899.03;;;11.00;86.95
71306;BME280;59097;46.858;18.632;2023-04-02T17:26:38;99906.16;;;10.87;88.27
71306;BME280;59097;46.858;18.632;2023-04-02T17:29:15;99916.38;;;10.83;88.61
71306;BME280;59097;46.858;18.632;2023-04-02T17:31:45;99921.88;;;10.75;88.81
71306;BME280;59097;46.858;18.632;2023-04-02T17:34:16;99926.56;;;10.73;88.88
71306;BME280;59097;46.858;18.632;2023-04-02T17:44:45;99937.91;;;10.41;90.69
71306;BME280;59097;46.858;18.632;2023-04-02T17:50:28;99950.50;;;10.26;88.57
71306;BME280;59097;46.858;18.632;2023-04-02T17:53:17;99953.50;;;10.16;86.92
71306;BME280;59097;46.858;18.632;2023-04-02T18:12:27;100004.50;;;9.35;79.61
71306;BME280;59097;46.858;18.632;2023-04-02T18:21:09;100017.50;;;9.09;80.00
71306;BME280;59097;46.858;18.632;2023-04-02T18:37:23;100034.19;;;8.38;82.32
71306;BME280;59097;46.858;18.632;2023-04-02T18:45:57;100068.22;;;8.18;82.28